DW2851 Weather Reports


Display with metric or nautical units.
time (UTC)temp
F
wind
direction
speed
MPH
gust
MPH
rain 1hr
in
rain 24hr
in
rain mn
in
humidity
%
barometer
mb
20180817091617 67 259 5.0 14.0 0.00 0.02 0.00 60 1016.6
20180817090102 65 245 6.0 13.0 0.00 0.02 0.00 64 1016.6
20180817084545 64 226 7.0 14.0 0.00 0.02 0.00 66 1016.6
20180817083045 63 252 7.0 14.0 0.00 0.02 0.00 68 1016.6
20180817081531 63 238 5.0 11.0 0.00 0.02 0.00 72 1016.5
20180817080027 62 238 7.0 15.0 0.00 0.02 0.00 73 1016.5
20180817074529 62 213 5.0 10.0 0.00 0.02 0.00 74 1016.5
20180817073048 62 250 4.0 10.0 0.00 0.02 0.00 76 1016.3
20180817071523 61 252 0.0 3.0 0.00 0.02 0.00 78 1016.3
20180817070030 60 242 0.0 3.0 0.00 0.02 0.00 78 1016.2
20180817064515 59 345 0.0 3.0 0.00 0.02 0.00 81 1016.2
20180817063011 58 39 0.0 2.0 0.00 0.02 0.00 83 1016.2
20180817061509 56 39 1.0 3.0 0.00 0.02 0.00 87 1016.1
20180817060004 53 40 0.0 3.0 0.00 0.02 0.00 91 1016.1
20180817054501 51 40 0.0 1.0 0.00 0.02 0.00 91 1016.0
20180817052958 50 40 0.0 1.0 0.00 0.02 0.00 92 1015.7
20180817051455 49 40 0.0 3.0 0.00 0.02 0.00 91 1015.6
20180817045952 50 317 0.0 4.0 0.00 0.02 0.00 89 1015.5
20180817044449 51 243 0.0 4.0 0.00 0.02 0.00 91 1015.3
20180817042947 51 243 0.0 0.0 0.00 0.02 0.00 90 1015.1
20180817041444 52 243 0.0 1.0 0.00 0.02 0.00 90 1015.0
20180817035943 52 242 1.0 7.0 0.00 0.03 0.00 91 1014.8
20180817034441 52 235 0.0 2.0 0.00 0.03 0.00 89 1014.8
20180817032937 52 235 0.0 4.0 0.00 0.03 0.00 89 1014.7
20180817031441 53 235 0.0 2.0 0.00 0.03 0.00 89 1014.7
20180817025935 53 238 2.0 7.0 0.00 0.03 0.00 89 1014.7
20180817024435 53 235 2.0 5.0 0.00 0.03 0.00 89 1014.7
20180817022938 53 232 1.0 5.0 0.00 0.03 0.00 88 1014.6
20180817021436 53 244 0.0 2.0 0.00 0.03 0.00 88 1014.5
20180817015936 53 224 2.0 6.0 0.00 0.03 0.00 88 1014.6
20180817014430 53 229 2.0 5.0 0.00 0.03 0.00 88 1014.5
20180817012929 53 232 0.0 3.0 0.00 0.03 0.00 87 1014.4
20180817011426 53 231 1.0 4.0 0.00 0.03 0.00 86 1014.3
20180817005926 54 244 1.0 3.0 0.00 0.03 0.00 84 1014.3
20180817004423 54 244 0.0 4.0 0.00 0.03 0.00 84 1014.2
20180817002917 55 243 2.0 9.0 0.00 0.03 0.00 83 1014.1
20180817001415 55 247 2.0 9.0 0.00 0.03 0.00 83 1014.1
20180816235913 56 254 4.0 10.0 0.00 0.03 0.00 82 1013.9
20180816234411 56 234 4.0 10.0 0.00 0.03 0.00 81 1013.8
20180816232908 56 223 4.0 11.0 0.00 0.03 0.00 81 1013.7
20180816231406 56 252 3.0 10.0 0.00 0.03 0.00 80 1013.6
20180816225902 57 238 4.0 12.0 0.00 0.03 0.03 79 1013.7
20180816224401 57 242 4.0 11.0 0.00 0.03 0.03 78 1013.7
20180816222901 57 223 6.0 12.0 0.00 0.03 0.03 77 1013.6
20180816221357 57 243 5.0 16.0 0.00 0.03 0.03 77 1013.4
20180816215856 57 244 5.0 10.0 0.00 0.04 0.03 77 1013.3
20180816214356 57 234 4.0 10.0 0.00 0.04 0.03 76 1013.2
20180816212852 58 261 4.0 12.0 0.00 0.04 0.03 75 1013.0
20180816211350 58 232 6.0 14.0 0.00 0.04 0.03 75 1013.0
20180816205850 58 230 5.0 10.0 0.00 0.05 0.03 75 1012.8
20180816204345 58 223 4.0 12.0 0.00 0.05 0.03 75 1012.6
20180816202846 58 238 4.0 10.0 0.00 0.05 0.03 74 1012.4
20180816201347 59 217 4.0 11.0 0.00 0.05 0.03 73 1012.4
20180816195843 59 229 5.0 12.0 0.00 0.05 0.03 70 1012.3
20180816194346 60 209 6.0 15.0 0.00 0.05 0.03 68 1012.2
20180816192843 61 238 6.0 15.0 0.00 0.05 0.03 66 1012.1
20180816191339 61 229 7.0 16.0 0.00 0.05 0.03 64 1012.0
20180816185840 62 217 4.0 11.0 0.00 0.05 0.03 63 1011.8
20180816184335 62 265 4.0 14.0 0.00 0.05 0.03 61 1011.8
20180816182833 63 240 4.0 11.0 0.00 0.05 0.03 60 1011.5
20180816181332 63 229 3.0 11.0 0.00 0.05 0.03 59 1011.3
20180816175829 64 260 3.0 15.0 0.00 0.05 0.03 57 1011.1
20180816174329 64 259 9.0 19.0 0.00 0.05 0.03 56 1010.9
20180816172827 65 298 6.0 15.0 0.00 0.05 0.03 57 1010.8
20180816171327 65 242 10.0 17.0 0.00 0.05 0.03 54 1010.7
20180816165827 65 238 5.0 15.0 0.00 0.05 0.03 56 1010.7
20180816164327 66 262 3.0 15.0 0.00 0.05 0.03 55 1010.7
20180816162822 66 327 3.0 21.0 0.00 0.05 0.03 55 1010.5
20180816161321 65 234 8.0 18.0 0.00 0.05 0.03 57 1010.4
20180816155818 65 313 5.0 15.0 0.00 0.05 0.03 57 1010.3
20180816154321 65 285 4.0 15.0 0.00 0.05 0.03 56 1010.2
20180816152817 65 290 5.0 15.0 0.00 0.05 0.03 56 1010.2
20180816151319 66 222 6.0 15.0 0.00 0.05 0.03 55 1010.0
20180816145817 67 267 4.0 14.0 0.00 0.05 0.03 53 1009.9
20180816144313 69 234 5.0 15.0 0.00 0.05 0.03 50 1009.6
20180816142812 67 252 4.0 16.0 0.00 0.05 0.03 53 1009.6
20180816141308 67 215 8.0 18.0 0.00 0.05 0.03 52 1009.4
20180816135808 70 240 7.0 19.0 0.00 0.05 0.03 49 1009.3
20180816134309 70 239 8.0 17.0 0.00 0.05 0.03 49 1009.3
20180816132806 69 227 9.0 18.0 0.00 0.05 0.03 51 1009.4
20180816131303 68 199 4.0 15.0 0.00 0.05 0.03 53 1009.4
20180816125802 69 248 8.0 18.0 0.01 0.05 0.03 50 1009.3
20180816124300 68 221 2.0 14.0 0.01 0.05 0.03 54 1009.2
20180816122801 68 273 7.0 18.0 0.01 0.05 0.03 52 1009.2
20180816121259 67 268 3.0 15.0 0.01 0.05 0.03 58 1009.2
20180816115751 65 259 4.0 11.0 0.00 0.04 0.02 63 1009.1
20180816114248 64 236 7.0 13.0 0.00 0.04 0.02 66 1009.1
20180816112750 63 244 7.0 16.0 0.00 0.04 0.02 68 1009.1
20180816111248 63 229 6.0 12.0 0.00 0.04 0.02 69 1009.1
20180816105746 61 261 6.0 15.0 0.00 0.04 0.02 73 1008.9
20180816104246 61 281 4.0 16.0 0.00 0.04 0.02 74 1009.2
20180816102743 60 245 6.0 15.0 0.00 0.04 0.02 75 1009.1
20180816101239 60 219 6.0 11.0 0.01 0.04 0.02 78 1009.2
20180816095736 60 215 4.0 13.0 0.01 0.04 0.02 80 1009.1
20180816094235 59 224 6.0 16.0 0.01 0.04 0.02 81 1008.8